sensor_id;sensor_type;location;lat;lon;timestamp;pressure;altitude;pressure_sealevel;temperature;humidity
43503;BME280;29098;48.184;16.298;2023-02-12T00:00:36;100898.81;;;5.34;73.25
43503;BME280;29098;48.184;16.298;2023-02-12T00:03:02;100892.66;;;5.23;73.57
43503;BME280;29098;48.184;16.298;2023-02-12T00:05:27;100893.81;;;5.31;73.35
43503;BME280;29098;48.184;16.298;2023-02-12T00:07:53;100885.97;;;5.31;73.31
43503;BME280;29098;48.184;16.298;2023-02-12T00:10:18;100889.63;;;5.29;74.05
43503;BME280;29098;48.184;16.298;2023-02-12T00:12:44;100891.28;;;5.30;74.94
43503;BME280;29098;48.184;16.298;2023-02-12T00:15:09;100897.56;;;5.27;76.12
43503;BME280;29098;48.184;16.298;2023-02-12T00:17:35;100896.44;;;5.18;76.72
43503;BME280;29098;48.184;16.298;2023-02-12T00:20:00;100904.16;;;5.20;76.72
43503;BME280;29098;48.184;16.298;2023-02-12T00:22:26;100906.69;;;5.21;76.53
43503;BME280;29098;48.184;16.298;2023-02-12T00:24:52;100909.59;;;5.30;75.99
43503;BME280;29098;48.184;16.298;2023-02-12T00:27:17;100907.16;;;5.40;75.59
43503;BME280;29098;48.184;16.298;2023-02-12T00:29:42;100916.72;;;5.28;76.02
43503;BME280;29098;48.184;16.298;2023-02-12T00:32:08;100912.84;;;5.20;76.17
43503;BME280;29098;48.184;16.298;2023-02-12T00:34:33;100922.66;;;5.30;75.71
43503;BME280;29098;48.184;16.298;2023-02-12T00:36:58;100928.09;;;5.27;75.86
43503;BME280;29098;48.184;16.298;2023-02-12T00:39:24;100924.66;;;5.26;75.87
43503;BME280;29098;48.184;16.298;2023-02-12T00:41:49;100926.22;;;5.29;75.61
43503;BME280;29098;48.184;16.298;2023-02-12T00:44:14;100919.75;;;5.21;75.86
43503;BME280;29098;48.184;16.298;2023-02-12T00:46:40;100917.34;;;5.31;75.54
43503;BME280;29098;48.184;16.298;2023-02-12T00:49:05;100914.50;;;5.34;75.26
43503;BME280;29098;48.184;16.298;2023-02-12T00:51:30;100925.06;;;5.33;75.05
43503;BME280;29098;48.184;16.298;2023-02-12T00:53:56;100932.91;;;5.33;75.47
43503;BME280;29098;48.184;16.298;2023-02-12T00:56:21;100925.47;;;5.27;75.35
43503;BME280;29098;48.184;16.298;2023-02-12T00:58:46;100924.75;;;5.25;75.82
43503;BME280;29098;48.184;16.298;2023-02-12T01:01:12;100937.47;;;5.42;74.94
43503;BME280;29098;48.184;16.298;2023-02-12T01:03:37;100929.34;;;5.34;75.28
43503;BME280;29098;48.184;16.298;2023-02-12T01:06:03;100935.75;;;5.30;75.61
43503;BME280;29098;48.184;16.298;2023-02-12T01:08:30;100944.41;;;5.30;75.30
43503;BME280;29098;48.184;16.298;2023-02-12T01:10:56;100944.41;;;5.30;75.75
43503;BME280;29098;48.184;16.298;2023-02-12T01:13:22;100937.69;;;5.39;75.29
43503;BME280;29098;48.184;16.298;2023-02-12T01:15:48;100937.94;;;5.36;75.51
43503;BME280;29098;48.184;16.298;2023-02-12T01:18:13;100941.16;;;5.27;75.79
43503;BME280;29098;48.184;16.298;2023-02-12T01:20:40;100931.22;;;5.32;75.66
43503;BME280;29098;48.184;16.298;2023-02-12T01:23:05;100943.56;;;5.43;75.56
43503;BME280;29098;48.184;16.298;2023-02-12T01:25:32;100945.59;;;5.51;75.08
43503;BME280;29098;48.184;16.298;2023-02-12T01:27:57;100950.66;;;5.54;74.90
43503;BME280;29098;48.184;16.298;2023-02-12T01:30:23;100955.28;;;5.37;75.57
43503;BME280;29098;48.184;16.298;2023-02-12T01:32:48;100949.31;;;5.35;75.81
43503;BME280;29098;48.184;16.298;2023-02-12T01:35:14;100948.81;;;5.30;76.09
43503;BME280;29098;48.184;16.298;2023-02-12T01:37:39;100956.56;;;5.31;76.25
43503;BME280;29098;48.184;16.298;2023-02-12T01:40:05;100966.78;;;5.34;76.11
43503;BME280;29098;48.184;16.298;2023-02-12T01:42:32;100977.25;;;5.34;76.44
43503;BME280;29098;48.184;16.298;2023-02-12T01:47:42;100960.75;;;5.21;79.86
43503;BME280;29098;48.184;16.298;2023-02-12T01:50:09;100956.56;;;5.18;81.41
43503;BME280;29098;48.184;16.298;2023-02-12T01:52:35;100961.59;;;5.09;82.09
43503;BME280;29098;48.184;16.298;2023-02-12T01:55:03;100966.22;;;5.05;83.71
43503;BME280;29098;48.184;16.298;2023-02-12T01:57:30;100957.31;;;4.94;84.19
43503;BME280;29098;48.184;16.298;2023-02-12T01:59:56;100959.09;;;4.94;84.85
43503;BME280;29098;48.184;16.298;2023-02-12T02:02:22;100952.81;;;4.97;85.18
43503;BME280;29098;48.184;16.298;2023-02-12T02:04:58;100943.53;;;4.92;85.79
43503;BME280;29098;48.184;16.298;2023-02-12T02:07:25;100947.91;;;4.92;85.45
43503;BME280;29098;48.184;16.298;2023-02-12T02:09:51;100952.00;;;4.96;85.51
43503;BME280;29098;48.184;16.298;2023-02-12T02:12:17;100968.59;;;5.08;84.33
43503;BME280;29098;48.184;16.298;2023-02-12T02:15:01;100959.50;;;5.01;84.65
43503;BME280;29098;48.184;16.298;2023-02-12T02:17:34;100966.72;;;4.84;85.26
43503;BME280;29098;48.184;16.298;2023-02-12T02:32:52;100969.44;;;4.96;85.01
43503;BME280;29098;48.184;16.298;2023-02-12T02:35:23;100976.00;;;4.88;85.36
43503;BME280;29098;48.184;16.298;2023-02-12T02:38:10;100976.00;;;4.88;85.47
43503;BME280;29098;48.184;16.298;2023-02-12T02:40:48;100982.94;;;4.89;85.14
43503;BME280;29098;48.184;16.298;2023-02-12T02:43:20;100976.97;;;4.87;84.96
43503;BME280;29098;48.184;16.298;2023-02-12T02:45:49;100972.25;;;4.92;84.87
43503;BME280;29098;48.184;16.298;2023-02-12T02:48:17;100967.66;;;4.83;85.24
43503;BME280;29098;48.184;16.298;2023-02-12T02:53:44;100974.56;;;4.84;85.57
43503;BME280;29098;48.184;16.298;2023-02-12T02:56:12;100972.03;;;4.83;85.82
43503;BME280;29098;48.184;16.298;2023-02-12T02:58:40;100971.63;;;4.76;86.47
43503;BME280;29098;48.184;16.298;2023-02-12T03:03:41;100966.81;;;4.83;86.15
43503;BME280;29098;48.184;16.298;2023-02-12T03:06:09;100990.25;;;4.84;86.21
43503;BME280;29098;48.184;16.298;2023-02-12T03:08:39;100994.22;;;4.77;87.13
43503;BME280;29098;48.184;16.298;2023-02-12T03:11:11;100984.69;;;4.76;87.76
43503;BME280;29098;48.184;16.298;2023-02-12T03:13:44;100984.94;;;4.86;87.76
43503;BME280;29098;48.184;16.298;2023-02-12T03:16:16;100992.94;;;4.83;87.48
43503;BME280;29098;48.184;16.298;2023-02-12T03:18:45;100986.69;;;4.85;87.96
43503;BME280;29098;48.184;16.298;2023-02-12T03:21:12;100993.03;;;4.81;88.34
43503;BME280;29098;48.184;16.298;2023-02-12T03:23:50;100999.28;;;4.65;89.37
43503;BME280;29098;48.184;16.298;2023-02-12T03:26:20;100996.50;;;4.82;88.72
43503;BME280;29098;48.184;16.298;2023-02-12T03:28:47;100993.16;;;4.79;88.92
43503;BME280;29098;48.184;16.298;2023-02-12T03:31:17;101005.16;;;4.69;89.74
43503;BME280;29098;48.184;16.298;2023-02-12T03:36:34;101014.88;;;4.67;90.13
43503;BME280;29098;48.184;16.298;2023-02-12T03:39:10;101014.97;;;4.65;89.81
43503;BME280;29098;48.184;16.298;2023-02-12T03:41:42;101023.75;;;4.64;90.35
43503;BME280;29098;48.184;16.298;2023-02-12T03:46:39;101039.25;;;4.68;90.10
43503;BME280;29098;48.184;16.298;2023-02-12T03:49:13;101038.06;;;4.59;90.86
43503;BME280;29098;48.184;16.298;2023-02-12T03:51:41;101035.44;;;4.59;91.26
43503;BME280;29098;48.184;16.298;2023-02-12T03:54:09;101048.41;;;4.60;91.33
43503;BME280;29098;48.184;16.298;2023-02-12T03:56:54;101048.00;;;4.66;90.84
43503;BME280;29098;48.184;16.298;2023-02-12T03:59:22;101059.63;;;4.75;91.15
43503;BME280;29098;48.184;16.298;2023-02-12T04:01:48;101069.00;;;4.65;91.69
43503;BME280;29098;48.184;16.298;2023-02-12T04:04:15;101066.47;;;4.63;92.03
43503;BME280;29098;48.184;16.298;2023-02-12T04:06:41;101065.06;;;4.72;91.87
43503;BME280;29098;48.184;16.298;2023-02-12T04:09:08;101075.00;;;4.80;91.73
43503;BME280;29098;48.184;16.298;2023-02-12T04:14:24;101093.63;;;4.61;92.93
43503;BME280;29098;48.184;16.298;2023-02-12T04:16:53;101092.53;;;4.65;93.08
43503;BME280;29098;48.184;16.298;2023-02-12T04:19:39;101092.19;;;4.57;93.55
43503;BME280;29098;48.184;16.298;2023-02-12T04:24:54;101096.38;;;4.59;94.08
43503;BME280;29098;48.184;16.298;2023-02-12T04:27:36;101104.22;;;4.59;94.23
43503;BME280;29098;48.184;16.298;2023-02-12T04:30:13;101109.63;;;4.56;94.79
43503;BME280;29098;48.184;16.298;2023-02-12T04:32:44;101114.16;;;4.67;94.59
43503;BME280;29098;48.184;16.298;2023-02-12T04:35:25;101115.19;;;4.64;95.19
43503;BME280;29098;48.184;16.298;2023-02-12T04:40:23;101118.09;;;4.60;95.55
43503;BME280;29098;48.184;16.298;2023-02-12T04:42:49;101118.94;;;4.60;95.81
43503;BME280;29098;48.184;16.298;2023-02-12T04:45:17;101115.78;;;4.55;96.02
43503;BME280;29098;48.184;16.298;2023-02-12T04:47:45;101097.59;;;4.53;96.59
43503;BME280;29098;48.184;16.298;2023-02-12T04:50:10;101105.13;;;4.58;96.28
43503;BME280;29098;48.184;16.298;2023-02-12T04:52:36;101115.94;;;4.66;96.23
43503;BME280;29098;48.184;16.298;2023-02-12T04:55:01;101117.91;;;4.63;96.12
43503;BME280;29098;48.184;16.298;2023-02-12T04:57:26;101125.06;;;4.74;95.78
43503;BME280;29098;48.184;16.298;2023-02-12T04:59:52;101135.38;;;4.75;95.76
43503;BME280;29098;48.184;16.298;2023-02-12T05:02:17;101137.34;;;4.72;96.29
43503;BME280;29098;48.184;16.298;2023-02-12T05:04:42;101130.38;;;4.72;96.56
43503;BME280;29098;48.184;16.298;2023-02-12T05:07:09;101134.63;;;4.60;97.54
43503;BME280;29098;48.184;16.298;2023-02-12T05:09:35;101139.63;;;4.63;97.38
43503;BME280;29098;48.184;16.298;2023-02-12T05:12:00;101141.06;;;4.55;98.35
43503;BME280;29098;48.184;16.298;2023-02-12T05:14:25;101136.06;;;4.64;98.18
43503;BME280;29098;48.184;16.298;2023-02-12T05:16:52;101141.06;;;4.82;96.91
43503;BME280;29098;48.184;16.298;2023-02-12T05:19:18;101144.25;;;4.73;97.77
43503;BME280;29098;48.184;16.298;2023-02-12T05:21:43;101143.13;;;4.77;97.52
43503;BME280;29098;48.184;16.298;2023-02-12T05:24:08;101144.72;;;4.79;97.84
43503;BME280;29098;48.184;16.298;2023-02-12T05:26:34;101141.84;;;4.70;98.01
43503;BME280;29098;48.184;16.298;2023-02-12T05:28:59;101154.19;;;4.68;98.23
43503;BME280;29098;48.184;16.298;2023-02-12T05:31:25;101158.09;;;4.75;98.03
43503;BME280;29098;48.184;16.298;2023-02-12T05:33:50;101162.97;;;4.66;98.68
43503;BME280;29098;48.184;16.298;2023-02-12T05:36:17;101160.13;;;4.70;98.69
43503;BME280;29098;48.184;16.298;2023-02-12T05:38:43;101156.59;;;4.71;98.50
43503;BME280;29098;48.184;16.298;2023-02-12T05:41:09;101154.47;;;4.63;99.55
43503;BME280;29098;48.184;16.298;2023-02-12T05:43:35;101156.41;;;4.74;98.99
43503;BME280;29098;48.184;16.298;2023-02-12T05:46:02;101167.88;;;4.71;99.38
43503;BME280;29098;48.184;16.298;2023-02-12T05:48:28;101161.50;;;4.75;99.12
43503;BME280;29098;48.184;16.298;2023-02-12T05:50:53;101170.94;;;4.78;98.74
43503;BME280;29098;48.184;16.298;2023-02-12T05:53:19;101176.25;;;4.76;99.23
43503;BME280;29098;48.184;16.298;2023-02-12T05:55:44;101176.16;;;4.78;98.98
43503;BME280;29098;48.184;16.298;2023-02-12T05:58:10;101180.84;;;4.73;99.54
43503;BME280;29098;48.184;16.298;2023-02-12T06:00:35;101179.38;;;4.69;99.92
43503;BME280;29098;48.184;16.298;2023-02-12T06:03:00;101192.88;;;4.75;99.66
43503;BME280;29098;48.184;16.298;2023-02-12T06:05:26;101191.00;;;4.77;99.41
43503;BME280;29098;48.184;16.298;2023-02-12T06:07:52;101188.00;;;4.84;98.97
43503;BME280;29098;48.184;16.298;2023-02-12T06:10:17;101203.31;;;4.75;99.52
43503;BME280;29098;48.184;16.298;2023-02-12T06:12:43;101203.78;;;4.82;99.54
43503;BME280;29098;48.184;16.298;2023-02-12T06:15:08;101207.72;;;4.75;99.78
43503;BME280;29098;48.184;16.298;2023-02-12T06:17:33;101223.56;;;4.72;100.00
43503;BME280;29098;48.184;16.298;2023-02-12T06:19:59;101222.25;;;4.79;100.00
43503;BME280;29098;48.184;16.298;2023-02-12T06:22:26;101228.84;;;4.85;99.40
43503;BME280;29098;48.184;16.298;2023-02-12T06:24:51;101232.72;;;4.79;99.66
43503;BME280;29098;48.184;16.298;2023-02-12T06:27:16;101242.34;;;4.78;99.60
43503;BME280;29098;48.184;16.298;2023-02-12T06:29:42;101235.66;;;4.87;99.40
43503;BME280;29098;48.184;16.298;2023-02-12T06:32:07;101245.94;;;4.90;98.89
43503;BME280;29098;48.184;16.298;2023-02-12T06:34:32;101232.31;;;4.85;99.34
43503;BME280;29098;48.184;16.298;2023-02-12T06:36:58;101240.47;;;4.80;99.89
43503;BME280;29098;48.184;16.298;2023-02-12T06:39:23;101245.69;;;4.80;99.63
43503;BME280;29098;48.184;16.298;2023-02-12T06:41:49;101243.97;;;4.94;99.15
43503;BME280;29098;48.184;16.298;2023-02-12T06:44:14;101254.09;;;4.86;99.57
43503;BME280;29098;48.184;16.298;2023-02-12T06:46:39;101241.75;;;4.88;99.50
43503;BME280;29098;48.184;16.298;2023-02-12T06:49:05;101241.25;;;4.96;98.92
43503;BME280;29098;48.184;16.298;2023-02-12T06:51:30;101241.59;;;5.04;98.30
43503;BME280;29098;48.184;16.298;2023-02-12T06:53:56;101243.28;;;5.05;98.23
43503;BME280;29098;48.184;16.298;2023-02-12T06:56:22;101248.97;;;5.12;97.77
43503;BME280;29098;48.184;16.298;2023-02-12T06:58:51;101255.59;;;5.03;98.30
43503;BME280;29098;48.184;16.298;2023-02-12T07:01:18;101254.00;;;5.00;98.92
43503;BME280;29098;48.184;16.298;2023-02-12T07:03:46;101252.25;;;5.01;98.52
43503;BME280;29098;48.184;16.298;2023-02-12T07:06:12;101256.84;;;4.97;99.01
43503;BME280;29098;48.184;16.298;2023-02-12T07:08:37;101260.94;;;5.01;98.63
43503;BME280;29098;48.184;16.298;2023-02-12T07:11:03;101260.09;;;5.01;98.79
43503;BME280;29098;48.184;16.298;2023-02-12T07:13:28;101260.34;;;5.11;98.49
43503;BME280;29098;48.184;16.298;2023-02-12T07:15:53;101270.91;;;5.09;98.34
43503;BME280;29098;48.184;16.298;2023-02-12T07:18:19;101252.59;;;5.09;98.42
43503;BME280;29098;48.184;16.298;2023-02-12T07:20:44;101261.81;;;5.15;97.73
43503;BME280;29098;48.184;16.298;2023-02-12T07:23:10;101257.09;;;5.07;98.55
43503;BME280;29098;48.184;16.298;2023-02-12T07:25:35;101263.44;;;5.03;98.82
43503;BME280;29098;48.184;16.298;2023-02-12T07:28:01;101264.78;;;5.23;97.96
43503;BME280;29098;48.184;16.298;2023-02-12T07:30:26;101271.41;;;5.29;97.67
43503;BME280;29098;48.184;16.298;2023-02-12T07:32:51;101280.84;;;5.31;97.04
43503;BME280;29098;48.184;16.298;2023-02-12T07:35:17;101272.63;;;5.23;97.67
43503;BME280;29098;48.184;16.298;2023-02-12T07:37:42;101279.25;;;5.29;97.09
43503;BME280;29098;48.184;16.298;2023-02-12T07:40:07;101285.16;;;5.18;97.75
43503;BME280;29098;48.184;16.298;2023-02-12T07:42:33;101295.50;;;5.19;97.62
43503;BME280;29098;48.184;16.298;2023-02-12T07:44:58;101286.19;;;5.15;98.14
43503;BME280;29098;48.184;16.298;2023-02-12T07:47:24;101287.75;;;5.32;97.41
43503;BME280;29098;48.184;16.298;2023-02-12T07:49:49;101293.16;;;5.29;97.10
43503;BME280;29098;48.184;16.298;2023-02-12T07:52:14;101290.44;;;5.31;97.19
43503;BME280;29098;48.184;16.298;2023-02-12T07:54:40;101295.47;;;5.34;96.93
43503;BME280;29098;48.184;16.298;2023-02-12T07:57:05;101294.91;;;5.43;96.36
43503;BME280;29098;48.184;16.298;2023-02-12T07:59:30;101297.78;;;5.39;96.68
43503;BME280;29098;48.184;16.298;2023-02-12T08:01:56;101294.69;;;5.46;96.57
43503;BME280;29098;48.184;16.298;2023-02-12T08:04:22;101289.16;;;5.51;96.27
43503;BME280;29098;48.184;16.298;2023-02-12T08:06:49;101286.09;;;5.44;96.68
43503;BME280;29098;48.184;16.298;2023-02-12T08:09:16;101288.53;;;5.60;96.23
43503;BME280;29098;48.184;16.298;2023-02-12T08:11:42;101293.47;;;5.65;95.94
43503;BME280;29098;48.184;16.298;2023-02-12T08:14:09;101287.78;;;5.45;96.80
43503;BME280;29098;48.184;16.298;2023-02-12T08:16:36;101257.56;;;5.27;97.17
43503;BME280;29098;48.184;16.298;2023-02-12T08:19:02;101282.16;;;5.52;97.55
43503;BME280;29098;48.184;16.298;2023-02-12T08:21:27;101297.13;;;5.35;97.90
43503;BME280;29098;48.184;16.298;2023-02-12T08:23:53;101301.16;;;5.41;98.08
43503;BME280;29098;48.184;16.298;2023-02-12T08:26:20;101311.44;;;5.57;97.24
43503;BME280;29098;48.184;16.298;2023-02-12T08:28:50;101312.31;;;5.70;96.74
43503;BME280;29098;48.184;16.298;2023-02-12T08:31:17;101313.84;;;5.87;95.80
43503;BME280;29098;48.184;16.298;2023-02-12T08:33:44;101314.88;;;5.98;94.81
43503;BME280;29098;48.184;16.298;2023-02-12T08:36:10;101323.53;;;6.13;93.74
43503;BME280;29098;48.184;16.298;2023-02-12T08:38:37;101317.44;;;6.25;92.84
43503;BME280;29098;48.184;16.298;2023-02-12T08:41:07;101318.53;;;6.36;92.24
43503;BME280;29098;48.184;16.298;2023-02-12T08:43:32;101323.31;;;6.42;91.33
43503;BME280;29098;48.184;16.298;2023-02-12T08:46:05;101324.38;;;6.52;90.75
43503;BME280;29098;48.184;16.298;2023-02-12T08:48:31;101329.00;;;6.36;91.53
43503;BME280;29098;48.184;16.298;2023-02-12T08:51:02;101332.44;;;6.36;91.70
43503;BME280;29098;48.184;16.298;2023-02-12T08:53:27;101329.72;;;6.38;91.59
43503;BME280;29098;48.184;16.298;2023-02-12T08:55:53;101333.91;;;6.40;90.98
43503;BME280;29098;48.184;16.298;2023-02-12T08:58:18;101339.22;;;6.65;90.18
43503;BME280;29098;48.184;16.298;2023-02-12T09:00:43;101339.75;;;6.70;89.90
43503;BME280;29098;48.184;16.298;2023-02-12T09:03:09;101343.84;;;6.74;88.70
43503;BME280;29098;48.184;16.298;2023-02-12T09:05:37;101344.56;;;6.89;88.29
43503;BME280;29098;48.184;16.298;2023-02-12T09:08:02;101356.06;;;6.99;86.93
43503;BME280;29098;48.184;16.298;2023-02-12T09:10:27;101361.22;;;6.88;87.16
43503;BME280;29098;48.184;16.298;2023-02-12T09:12:53;101356.19;;;6.98;86.47
43503;BME280;29098;48.184;16.298;2023-02-12T09:15:18;101349.91;;;6.88;86.83
43503;BME280;29098;48.184;16.298;2023-02-12T09:17:43;101359.56;;;6.87;86.81
43503;BME280;29098;48.184;16.298;2023-02-12T09:20:09;101369.00;;;6.90;86.49
43503;BME280;29098;48.184;16.298;2023-02-12T09:22:34;101361.03;;;6.78;87.11
43503;BME280;29098;48.184;16.298;2023-02-12T09:25:02;101369.63;;;6.93;86.64
43503;BME280;29098;48.184;16.298;2023-02-12T09:27:27;101368.13;;;7.02;86.17
43503;BME280;29098;48.184;16.298;2023-02-12T09:29:53;101372.50;;;7.15;85.04
43503;BME280;29098;48.184;16.298;2023-02-12T09:32:18;101370.16;;;7.23;84.70
43503;BME280;29098;48.184;16.298;2023-02-12T09:34:44;101375.81;;;7.30;84.24
43503;BME280;29098;48.184;16.298;2023-02-12T09:37:09;101373.09;;;7.31;84.23
43503;BME280;29098;48.184;16.298;2023-02-12T09:39:34;101376.34;;;7.59;82.90
43503;BME280;29098;48.184;16.298;2023-02-12T09:42:06;101372.69;;;7.49;83.17
43503;BME280;29098;48.184;16.298;2023-02-12T09:47:24;101384.13;;;7.97;80.55
43503;BME280;29098;48.184;16.298;2023-02-12T09:52:26;101377.56;;;8.38;78.30
43503;BME280;29098;48.184;16.298;2023-02-12T09:54:52;101383.16;;;8.45;77.71
43503;BME280;29098;48.184;16.298;2023-02-12T09:57:24;101380.94;;;8.63;77.44
43503;BME280;29098;48.184;16.298;2023-02-12T09:59:55;101379.53;;;8.59;77.17
43503;BME280;29098;48.184;16.298;2023-02-12T10:02:22;101377.09;;;8.44;77.17
43503;BME280;29098;48.184;16.298;2023-02-12T10:04:48;101376.53;;;8.63;76.52
43503;BME280;29098;48.184;16.298;2023-02-12T10:22:18;101371.50;;;8.83;75.18
43503;BME280;29098;48.184;16.298;2023-02-12T10:25:05;101374.00;;;8.73;75.29
43503;BME280;29098;48.184;16.298;2023-02-12T10:27:40;101376.66;;;8.73;74.91
43503;BME280;29098;48.184;16.298;2023-02-12T10:33:03;101377.75;;;8.94;74.34
43503;BME280;29098;48.184;16.298;2023-02-12T10:35:30;101376.91;;;8.93;74.01
43503;BME280;29098;48.184;16.298;2023-02-12T10:40:26;101380.94;;;9.09;73.39
43503;BME280;29098;48.184;16.298;2023-02-12T10:42:54;101383.00;;;8.94;74.18
43503;BME280;29098;48.184;16.298;2023-02-12T10:45:23;101382.75;;;8.97;73.46
43503;BME280;29098;48.184;16.298;2023-02-12T10:47:50;101376.53;;;9.09;73.26
43503;BME280;29098;48.184;16.298;2023-02-12T10:53:01;101386.66;;;9.69;71.00
43503;BME280;29098;48.184;16.298;2023-02-12T10:55:30;101373.56;;;9.79;70.60
43503;BME280;29098;48.184;16.298;2023-02-12T10:57:57;101382.66;;;10.08;70.18
43503;BME280;29098;48.184;16.298;2023-02-12T11:00:24;101372.25;;;10.27;68.32
43503;BME280;29098;48.184;16.298;2023-02-12T11:05:25;101369.09;;;10.12;67.82
43503;BME280;29098;48.184;16.298;2023-02-12T11:07:52;101367.88;;;10.38;66.98
43503;BME280;29098;48.184;16.298;2023-02-12T11:13:24;101358.53;;;11.37;62.73
43503;BME280;29098;48.184;16.298;2023-02-12T11:15:50;101357.13;;;11.92;59.28
43503;BME280;29098;48.184;16.298;2023-02-12T11:18:21;101368.78;;;12.39;58.14
43503;BME280;29098;48.184;16.298;2023-02-12T11:20:49;101358.22;;;12.19;58.56
43503;BME280;29098;48.184;16.298;2023-02-12T11:25:54;101350.97;;;12.31;58.57
43503;BME280;29098;48.184;16.298;2023-02-12T11:28:19;101358.16;;;12.49;57.87
43503;BME280;29098;48.184;16.298;2023-02-12T11:30:52;101342.06;;;12.70;56.74
43503;BME280;29098;48.184;16.298;2023-02-12T11:33:27;101346.09;;;13.20;55.51
43503;BME280;29098;48.184;16.298;2023-02-12T11:35:57;101347.28;;;13.54;55.13
43503;BME280;29098;48.184;16.298;2023-02-12T11:38:25;101360.47;;;13.64;54.02
43503;BME280;29098;48.184;16.298;2023-02-12T11:40:53;101357.72;;;13.74;53.45
43503;BME280;29098;48.184;16.298;2023-02-12T11:43:20;101350.69;;;13.46;53.93
43503;BME280;29098;48.184;16.298;2023-02-12T11:45:49;101350.97;;;13.43;54.67
43503;BME280;29098;48.184;16.298;2023-02-12T11:48:21;101349.47;;;13.12;55.24
43503;BME280;29098;48.184;16.298;2023-02-12T11:50:47;101359.41;;;14.01;53.52
43503;BME280;29098;48.184;16.298;2023-02-12T11:53:18;101356.44;;;14.22;52.11
43503;BME280;29098;48.184;16.298;2023-02-12T11:55:51;101359.69;;;15.20;49.46
43503;BME280;29098;48.184;16.298;2023-02-12T11:58:20;101354.19;;;13.65;52.40
43503;BME280;29098;48.184;16.298;2023-02-12T12:00:50;101363.44;;;13.14;53.75
43503;BME280;29098;48.184;16.298;2023-02-12T12:03:22;101366.84;;;12.01;57.65
43503;BME280;29098;48.184;16.298;2023-02-12T12:05:58;101358.66;;;12.14;58.13
43503;BME280;29098;48.184;16.298;2023-02-12T12:08:26;101365.91;;;11.83;59.19
43503;BME280;29098;48.184;16.298;2023-02-12T12:10:57;101356.75;;;11.67;59.78
43503;BME280;29098;48.184;16.298;2023-02-12T12:13:26;101355.13;;;12.33;58.37
43503;BME280;29098;48.184;16.298;2023-02-12T12:16:06;101346.59;;;12.78;56.84
43503;BME280;29098;48.184;16.298;2023-02-12T12:18:54;101344.66;;;12.80;56.38
43503;BME280;29098;48.184;16.298;2023-02-12T12:24:13;101348.78;;;13.75;53.03
43503;BME280;29098;48.184;16.298;2023-02-12T12:26:41;101342.78;;;13.18;54.81
43503;BME280;29098;48.184;16.298;2023-02-12T12:29:25;101344.53;;;12.99;54.27
43503;BME280;29098;48.184;16.298;2023-02-12T12:31:55;101332.88;;;12.26;57.45
43503;BME280;29098;48.184;16.298;2023-02-12T12:34:23;101340.03;;;12.54;56.76
43503;BME280;29098;48.184;16.298;2023-02-12T12:54:31;101334.69;;;10.57;62.90
43503;BME280;29098;48.184;16.298;2023-02-12T13:15:02;101317.94;;;9.94;66.03
43503;BME280;29098;48.184;16.298;2023-02-12T13:20:20;101338.44;;;9.90;66.27
43503;BME280;29098;48.184;16.298;2023-02-12T13:23:02;101327.31;;;9.86;66.52
43503;BME280;29098;48.184;16.298;2023-02-12T13:25:31;101320.31;;;10.18;65.30
43503;BME280;29098;48.184;16.298;2023-02-12T13:28:00;101335.03;;;10.21;65.14
43503;BME280;29098;48.184;16.298;2023-02-12T13:30:37;101324.81;;;9.85;66.09
43503;BME280;29098;48.184;16.298;2023-02-12T13:33:09;101328.34;;;10.17;65.57
43503;BME280;29098;48.184;16.298;2023-02-12T13:35:37;101320.66;;;9.82;66.48
43503;BME280;29098;48.184;16.298;2023-02-12T13:38:04;101335.19;;;9.32;68.09
43503;BME280;29098;48.184;16.298;2023-02-12T13:40:30;101328.59;;;9.06;69.66
43503;BME280;29098;48.184;16.298;2023-02-12T13:45:47;101339.97;;;9.39;68.88
43503;BME280;29098;48.184;16.298;2023-02-12T13:53:35;101341.84;;;9.48;68.44
43503;BME280;29098;48.184;16.298;2023-02-12T14:01:04;101331.69;;;9.76;67.38
43503;BME280;29098;48.184;16.298;2023-02-12T14:03:32;101329.44;;;9.71;67.27
43503;BME280;29098;48.184;16.298;2023-02-12T14:08:36;101330.19;;;9.29;68.61
43503;BME280;29098;48.184;16.298;2023-02-12T14:11:02;101325.06;;;9.16;68.68
43503;BME280;29098;48.184;16.298;2023-02-12T14:13:28;101325.47;;;9.00;69.87
43503;BME280;29098;48.184;16.298;2023-02-12T14:15:58;101322.56;;;9.15;69.38
43503;BME280;29098;48.184;16.298;2023-02-12T14:18:42;101327.03;;;9.47;68.57
43503;BME280;29098;48.184;16.298;2023-02-12T14:23:36;101326.69;;;9.40;68.24
43503;BME280;29098;48.184;16.298;2023-02-12T14:26:05;101325.16;;;9.26;68.29
43503;BME280;29098;48.184;16.298;2023-02-12T14:33:42;101332.44;;;8.79;70.84
43503;BME280;29098;48.184;16.298;2023-02-12T14:36:15;101331.72;;;8.65;71.52
43503;BME280;29098;48.184;16.298;2023-02-12T14:54:29;101346.28;;;8.81;71.76
43503;BME280;29098;48.184;16.298;2023-02-12T14:57:02;101359.19;;;8.72;71.52
43503;BME280;29098;48.184;16.298;2023-02-12T14:59:30;101355.81;;;9.04;71.09
43503;BME280;29098;48.184;16.298;2023-02-12T15:01:57;101355.50;;;8.86;71.05
43503;BME280;29098;48.184;16.298;2023-02-12T15:04:29;101351.78;;;8.66;72.18
43503;BME280;29098;48.184;16.298;2023-02-12T15:07:08;101362.50;;;8.40;73.40
43503;BME280;29098;48.184;16.298;2023-02-12T15:09:50;101362.50;;;8.29;73.59
43503;BME280;29098;48.184;16.298;2023-02-12T15:12:18;101354.13;;;8.23;73.77
43503;BME280;29098;48.184;16.298;2023-02-12T15:14:47;101350.41;;;8.38;73.73
43503;BME280;29098;48.184;16.298;2023-02-12T15:17:18;101340.69;;;8.04;74.69
43503;BME280;29098;48.184;16.298;2023-02-12T15:19:53;101359.91;;;8.04;74.63
43503;BME280;29098;48.184;16.298;2023-02-12T15:24:46;101355.97;;;7.99;75.46